ENSB/LYR METAR and TAF weather

Enter ICAO airport designator
Station Type Date Time Source
ENSB METAR 2022/01/29 10:20 UTC NOAA

ENSB 291020Z 14014KT CAVOK M13/M18 Q1003 RMK WIND 1400FT 13013KT


Station Type Date Time Source
ENSB Decoded METAR 2022/01/29 10:20 UTC NOAA

Svalbard Lufthavn, Norway (ENSB) 78-15N 015-28E 29M
Jan 29, 2022 - 05:20 AM EST / 2022.01.29 1020 UTC
Wind: from the SE (140 degrees) at 16 MPH (14 KT):0
Visibility: greater than 7 mile(s):0
Temperature: 8 F (-13 C)
Windchill: -9 F (-23 C):2
Dew Point: 0 F (-18 C)
Relative Humidity: 66%
Pressure (altimeter): 29.62 in. Hg (1003 hPa)
ob: ENSB 291020Z 14014KT CAVOK M13/M18 Q1003 RMK WIND 1400FT 13013KT
cycle: 10

Station Type Date Time Source
ENSB TAF 2022/01/29 06:57 UTC NOAA

TAF ENSB 290500Z 2906/3006 13014KT 9999 FEW040

Example: see airport list